Terminal Aerodrome Forecast
Issued by NWS North Platte, NE

Home | Current Version | Previous Version | Graphics & Text | Print | Product List | Glossary On
Versions: 1 2 3 4 5 6 7 8 9 10 11 12 13 14 15 16 17 18 19 20 21 22 23 24 25 26
000
FTUS43 KLBF 010200 AAA
TAFVTN
TAF AMD
KVTN 010200Z 0102/0124 01014G20KT 2SM -SN BR OVC015
      TEMPO 0102/0104 1SM -SN BR OVC010
     FM010900 35014G21KT 5SM -SN BR OVC018
     FM011100 35015G25KT P6SM OVC015
     FM012100 35015G23KT P6SM OVC030=

USA.gov is the U.S. government's official web portal to all federal, state and local government web resources and services.